createdAt,value
2023-05-11T10:18:15.085Z,101182.94
2023-05-11T10:20:42.153Z,101187.36
2023-05-11T10:23:12.038Z,101179.53
2023-05-11T10:25:39.572Z,101178.11
2023-05-11T10:28:06.277Z,101163.07
2023-05-11T10:30:36.203Z,101173.02
2023-05-11T10:33:05.924Z,101183.36
2023-05-11T10:35:32.569Z,101163.48
2023-05-11T10:38:03.405Z,101167.83
2023-05-11T10:40:41.353Z,101163.86
2023-05-11T10:43:50.061Z,101161.96
2023-05-11T10:46:42.888Z,101166.07
2023-05-11T10:49:26.996Z,101159.48
2023-05-11T10:52:11.486Z,101162.84
2023-05-11T10:54:54.563Z,101151.14
2023-05-11T10:57:33.948Z,101147.39
2023-05-11T11:00:10.588Z,101153.40
2023-05-11T11:02:37.856Z,101144.95
2023-05-11T11:05:08.318Z,101152.43
2023-05-11T11:08:03.183Z,101149.34
2023-05-11T11:10:38.956Z,101145.14
2023-05-11T11:13:11.049Z,101150.08
2023-05-11T11:15:56.187Z,101140.02
2023-05-11T11:18:24.540Z,101143.50
2023-05-11T11:20:55.195Z,101145.25
2023-05-11T11:23:40.776Z,101146.83
2023-05-11T11:26:09.526Z,101145.11
2023-05-11T11:28:55.950Z,101149.33
2023-05-11T11:31:26.989Z,101137.58
2023-05-11T11:33:58.301Z,101141.27
2023-05-11T11:37:05.737Z,101135.66
2023-05-11T11:39:41.390Z,101127.88
2023-05-11T11:42:13.110Z,101137.52
2023-05-11T11:44:40.749Z,101134.25
2023-05-11T11:47:19.201Z,101134.10
2023-05-11T11:49:48.598Z,101131.34
2023-05-11T11:52:30.723Z,101130.43
2023-05-11T11:54:59.287Z,101132.67
2023-05-11T11:57:31.895Z,101136.38
2023-05-11T12:00:10.689Z,101138.70
2023-05-11T12:02:41.934Z,101134.52
2023-05-11T12:05:17.857Z,101132.52
2023-05-11T12:07:47.374Z,101137.80
2023-05-11T12:10:16.823Z,101128.23
2023-05-11T12:12:54.203Z,101132.27
2023-05-11T12:15:33.708Z,101127.54
2023-05-11T12:18:02.320Z,101129.20
2023-05-11T12:20:28.811Z,101125.26
2023-05-11T12:22:57.897Z,101126.77
2023-05-11T12:25:24.249Z,101122.11
2023-05-11T12:28:01.473Z,101125.98
2023-05-11T12:30:30.486Z,101119.65
2023-05-11T12:32:58.716Z,101117.72
2023-05-11T12:35:27.902Z,101110.48
2023-05-11T12:37:55.654Z,101109.48
2023-05-11T12:40:22.504Z,101116.86
2023-05-11T12:42:54.114Z,101112.08
2023-05-11T12:45:22.027Z,101114.11
2023-05-11T12:47:49.883Z,101103.95
2023-05-11T12:50:19.789Z,101095.89
2023-05-11T12:52:47.533Z,101093.85
2023-05-11T12:55:16.352Z,101094.68
2023-05-11T12:57:42.792Z,101090.23
2023-05-11T13:00:15.704Z,101089.08
2023-05-11T13:02:53.333Z,101087.46
2023-05-11T13:05:25.736Z,101079.77
2023-05-11T13:07:58.862Z,101076.08
2023-05-11T13:10:26.169Z,101078.95
2023-05-11T13:12:53.519Z,101088.96
2023-05-11T13:15:21.460Z,101081.74
2023-05-11T13:17:56.331Z,101076.94
2023-05-11T13:20:32.001Z,101080.94
2023-05-11T13:23:21.040Z,101074.22
2023-05-11T13:25:56.380Z,101071.70
2023-05-11T13:28:23.848Z,101072.17
2023-05-11T13:30:51.759Z,101061.11
2023-05-11T13:33:18.576Z,101062.52
2023-05-11T13:35:44.999Z,101065.47
2023-05-11T13:38:12.083Z,101073.64
2023-05-11T13:40:38.467Z,101075.48
2023-05-11T13:43:05.039Z,101069.67
2023-05-11T13:45:31.440Z,101071.07
2023-05-11T13:47:57.892Z,101071.36
2023-05-11T13:50:25.835Z,101067.47
2023-05-11T13:52:53.166Z,101070.54
2023-05-11T13:55:20.534Z,101075.52
2023-05-11T13:57:47.352Z,101070.30
2023-05-11T14:00:14.445Z,101067.25
2023-05-11T14:02:41.053Z,101073.46
2023-05-11T14:05:08.344Z,101068.71
2023-05-11T14:07:46.449Z,101069.20
2023-05-11T14:10:14.837Z,101066.61
2023-05-11T14:12:41.209Z,101062.48
2023-05-11T14:15:08.306Z,101061.09
2023-05-11T14:17:34.784Z,101064.33
2023-05-11T14:20:01.261Z,101060.59
2023-05-11T14:22:28.418Z,101056.44
2023-05-11T14:24:55.434Z,101061.36
2023-05-11T14:27:22.514Z,101059.06
2023-05-11T14:29:50.770Z,101057.48
2023-05-11T14:32:18.634Z,101056.39
2023-05-11T14:34:44.972Z,101053.06
2023-05-11T14:37:12.261Z,101055.70
2023-05-11T14:39:40.290Z,101054.00
2023-05-11T14:42:07.078Z,101054.23
2023-05-11T14:44:33.509Z,101053.21
2023-05-11T14:46:59.943Z,101054.98
2023-05-11T14:49:26.386Z,101051.16
2023-05-11T14:51:52.784Z,101056.84
2023-05-11T14:54:19.166Z,101050.38
2023-05-11T14:56:50.574Z,101055.77
2023-05-11T14:59:20.980Z,101054.49
2023-05-11T15:01:50.341Z,101054.30
2023-05-11T15:04:16.906Z,101058.16
2023-05-11T15:06:43.731Z,101061.60
2023-05-11T15:09:10.147Z,101058.71
2023-05-11T15:11:39.386Z,101057.38
2023-05-11T15:14:12.110Z,101059.23
2023-05-11T15:16:38.418Z,101055.38
2023-05-11T15:19:05.301Z,101064.64
2023-05-11T15:21:31.888Z,101066.98
2023-05-11T15:23:58.295Z,101066.56
2023-05-11T15:26:25.382Z,101069.17
2023-05-11T15:28:51.932Z,101063.70
2023-05-11T15:31:20.371Z,101055.88
2023-05-11T15:33:46.858Z,101059.79
2023-05-11T15:36:14.754Z,101060.31
2023-05-11T15:38:44.577Z,101061.52
2023-05-11T15:41:10.825Z,101064.33
2023-05-11T15:43:37.147Z,101069.96
2023-05-11T15:46:04.219Z,101072.22
2023-05-11T15:48:30.710Z,101069.33
2023-05-11T15:50:59.274Z,101071.45
2023-05-11T15:53:29.236Z,101073.87
2023-05-11T15:55:56.310Z,101073.08
2023-05-11T15:58:22.717Z,101072.88
2023-05-11T16:00:49.161Z,101075.27
2023-05-11T16:03:16.153Z,101072.06
2023-05-11T16:05:43.735Z,101075.84
2023-05-11T16:08:10.040Z,101079.27
2023-05-11T16:10:36.389Z,101076.50
2023-05-11T16:13:02.669Z,101073.76
2023-05-11T16:15:30.495Z,101072.81
2023-05-11T16:17:57.611Z,101070.85
2023-05-11T16:20:24.288Z,101072.46
2023-05-11T16:22:50.716Z,101076.46
2023-05-11T16:25:17.309Z,101072.89
2023-05-11T16:27:43.715Z,101073.48
2023-05-11T16:30:22.252Z,101070.83
2023-05-11T16:32:50.486Z,101071.77
2023-05-11T16:35:16.929Z,101071.74
2023-05-11T16:37:43.245Z,101071.73
2023-05-11T16:40:12.181Z,101075.09
2023-05-11T16:42:38.528Z,101071.98
2023-05-11T16:45:05.679Z,101071.73
2023-05-11T16:47:32.057Z,101072.16
2023-05-11T16:49:58.471Z,101070.71
2023-05-11T16:52:24.801Z,101076.86
2023-05-11T16:54:51.112Z,101079.73
2023-05-11T16:57:17.504Z,101077.96
2023-05-11T16:59:43.774Z,101083.81
2023-05-11T17:02:10.408Z,101080.46
2023-05-11T17:04:36.750Z,101077.98
2023-05-11T17:07:03.179Z,101077.88
2023-05-11T17:09:30.277Z,101076.31
2023-05-11T17:11:56.675Z,101080.92
2023-05-11T17:14:23.007Z,101086.44
2023-05-11T17:16:49.461Z,101087.14
2023-05-11T17:19:16.002Z,101087.93
2023-05-11T17:21:42.379Z,101086.66
2023-05-11T17:24:08.748Z,101087.45
2023-05-11T17:26:46.441Z,101089.80
2023-05-11T17:29:16.288Z,101086.90
2023-05-11T17:31:42.874Z,101090.28
2023-05-11T17:34:09.759Z,101095.48
2023-05-11T17:36:36.351Z,101095.65
2023-05-11T17:39:03.044Z,101100.30
2023-05-11T17:41:29.394Z,101098.18
2023-05-11T17:43:55.836Z,101100.52
2023-05-11T17:46:22.385Z,101100.72
2023-05-11T17:48:48.737Z,101102.16
2023-05-11T17:51:15.147Z,101101.09
2023-05-11T17:53:42.112Z,101105.20
2023-05-11T17:56:10.927Z,101103.71
2023-05-11T17:58:37.226Z,101107.42
2023-05-11T18:01:08.346Z,101105.91
2023-05-11T18:03:35.311Z,101111.34
2023-05-11T18:06:02.014Z,101117.63
2023-05-11T18:08:28.406Z,101119.09
2023-05-11T18:10:55.040Z,101120.17
2023-05-11T18:13:22.084Z,101122.73
2023-05-11T18:15:48.561Z,101125.08
2023-05-11T18:18:15.259Z,101126.75
2023-05-11T18:20:44.670Z,101129.98
2023-05-11T18:23:11.823Z,101128.80
2023-05-11T18:25:38.215Z,101135.75
2023-05-11T18:28:04.560Z,101135.50
2023-05-11T18:30:33.162Z,101139.70
2023-05-11T18:32:59.673Z,101138.24
2023-05-11T18:35:26.063Z,101143.55
2023-05-11T18:37:52.566Z,101145.85
2023-05-11T18:40:19.365Z,101151.88
2023-05-11T18:42:48.901Z,101152.94
2023-05-11T18:45:15.175Z,101159.83
2023-05-11T18:47:45.440Z,101159.48
2023-05-11T18:50:11.983Z,101163.00
2023-05-11T18:52:38.301Z,101165.67
2023-05-11T18:55:05.113Z,101164.92
2023-05-11T18:57:33.543Z,101168.10
2023-05-11T19:00:00.226Z,101167.02
2023-05-11T19:02:26.741Z,101169.20
2023-05-11T19:04:53.096Z,101172.70
2023-05-11T19:07:20.382Z,101173.00
2023-05-11T19:09:46.930Z,101175.75
2023-05-11T19:12:13.334Z,101180.52
2023-05-11T19:14:39.761Z,101180.30
2023-05-11T19:17:06.169Z,101180.53
2023-05-11T19:19:33.386Z,101184.55
2023-05-11T19:21:59.850Z,101191.92
2023-05-11T19:24:26.265Z,101192.20
2023-05-11T19:27:02.973Z,101193.70
2023-05-11T19:29:33.317Z,101195.35
2023-05-11T19:31:59.723Z,101195.78
2023-05-11T19:34:26.114Z,101197.63
2023-05-11T19:36:52.487Z,101200.13
2023-05-11T19:39:18.817Z,101198.04
2023-05-11T19:41:45.481Z,101200.17
2023-05-11T19:44:11.907Z,101203.17
2023-05-11T19:46:44.939Z,101205.15
2023-05-11T19:49:12.834Z,101205.21
2023-05-11T19:51:39.258Z,101205.77
2023-05-11T19:54:05.689Z,101207.20
2023-05-11T19:56:34.889Z,101207.23
2023-05-11T19:59:03.987Z,101208.84
2023-05-11T20:01:30.482Z,101207.48
2023-05-11T20:03:56.906Z,101210.67
2023-05-11T20:06:24.433Z,101212.24
2023-05-11T20:08:52.035Z,101218.59
2023-05-11T20:11:18.339Z,101218.23
2023-05-11T20:13:46.050Z,101220.50
2023-05-11T20:16:12.703Z,101220.46
2023-05-11T20:18:39.446Z,101220.98
2023-05-11T20:21:06.293Z,101222.40
2023-05-11T20:23:32.613Z,101223.63
2023-05-11T20:25:59.026Z,101226.67
2023-05-11T20:28:27.304Z,101228.09
2023-05-11T20:30:55.552Z,101231.77
2023-05-11T20:35:53.205Z,101236.87
2023-05-11T20:38:19.930Z,101235.23
2023-05-11T20:40:46.323Z,101236.94
2023-05-11T20:43:14.610Z,101234.73
2023-05-11T20:45:42.854Z,101236.41
2023-05-11T20:48:09.253Z,101233.14
2023-05-11T20:50:35.579Z,101237.09
2023-05-11T20:53:01.907Z,101239.10
2023-05-11T20:55:28.313Z,101235.12
2023-05-11T20:57:54.678Z,101237.45
2023-05-11T21:00:21.336Z,101237.52
2023-05-11T21:02:48.187Z,101239.70
2023-05-11T21:05:14.652Z,101240.12
2023-05-11T21:07:40.925Z,101243.91
2023-05-11T21:10:09.800Z,101247.34
2023-05-11T21:12:36.096Z,101247.94
2023-05-11T21:15:02.619Z,101252.96
2023-05-11T21:17:28.911Z,101257.45
2023-05-11T21:19:55.242Z,101260.86
2023-05-11T21:22:21.680Z,101259.71
2023-05-11T21:24:48.308Z,101267.01
2023-05-11T21:27:14.770Z,101268.30
2023-05-11T21:29:41.321Z,101269.39
2023-05-11T21:32:07.653Z,101270.15
2023-05-11T21:34:33.992Z,101272.64
2023-05-11T21:37:00.311Z,101273.94
2023-05-11T21:39:26.678Z,101276.11
2023-05-11T21:41:53.089Z,101277.73
2023-05-11T21:44:19.659Z,101277.43
2023-05-11T21:46:45.979Z,101280.23
2023-05-11T21:49:12.896Z,101279.59
2023-05-11T21:51:39.183Z,101277.17
2023-05-11T21:54:05.818Z,101277.42
2023-05-11T21:56:32.084Z,101279.77
2023-05-11T21:58:58.432Z,101285.11
2023-05-11T22:01:24.819Z,101286.40
2023-05-11T22:03:51.267Z,101289.27
2023-05-11T22:06:17.722Z,101287.88
2023-05-11T22:08:44.066Z,101287.24
2023-05-11T22:11:10.378Z,101293.27
2023-05-11T22:13:36.705Z,101296.15
2023-05-11T22:16:03.361Z,101296.89
2023-05-11T22:18:29.767Z,101298.35
2023-05-11T22:20:56.088Z,101299.67
2023-05-11T22:23:22.428Z,101300.45
2023-05-11T22:25:48.752Z,101297.52
2023-05-11T22:28:15.088Z,101302.86
2023-05-11T22:30:41.331Z,101304.20
2023-05-11T22:33:07.612Z,101307.79
2023-05-11T22:35:34.053Z,101309.07
2023-05-11T22:38:01.069Z,101314.24
2023-05-11T22:40:27.805Z,101315.91
2023-05-11T22:42:54.096Z,101318.62
2023-05-11T22:45:20.431Z,101318.34
2023-05-11T22:47:46.892Z,101315.98
2023-05-11T22:50:13.284Z,101316.74
2023-05-11T22:52:39.664Z,101319.81
2023-05-11T22:55:06.439Z,101319.02
2023-05-11T22:57:33.008Z,101316.97
2023-05-11T22:59:59.290Z,101320.55
2023-05-11T23:02:25.771Z,101322.20
2023-05-11T23:04:52.510Z,101322.13
2023-05-11T23:07:19.150Z,101323.63
2023-05-11T23:09:45.684Z,101318.80
2023-05-11T23:12:12.727Z,101319.58
2023-05-11T23:14:39.117Z,101318.61
2023-05-11T23:17:05.400Z,101318.85
2023-05-11T23:19:31.796Z,101321.20
2023-05-11T23:21:58.263Z,101317.77
2023-05-11T23:24:24.835Z,101318.02
2023-05-11T23:26:51.475Z,101317.95
2023-05-11T23:29:17.957Z,101316.77
2023-05-11T23:31:44.384Z,101316.13
2023-05-11T23:34:10.661Z,101317.42
2023-05-11T23:36:37.468Z,101316.61
2023-05-11T23:39:04.668Z,101317.90
2023-05-11T23:41:31.669Z,101318.34
2023-05-11T23:43:57.958Z,101314.19
2023-05-11T23:46:24.654Z,101314.95
2023-05-11T23:48:50.979Z,101314.65
2023-05-11T23:51:17.254Z,101317.35
2023-05-11T23:53:43.582Z,101314.79
2023-05-11T23:56:09.937Z,101316.58
2023-05-11T23:58:36.303Z,101314.17
